sensor_id;sensor_type;location;lat;lon;timestamp;temperature;humidity
1700;DHT22;847;48.058;7.810;2023-03-23T00:00:56;13.50;91.80
1700;DHT22;847;48.058;7.810;2023-03-23T00:03:24;13.50;93.30
1700;DHT22;847;48.058;7.810;2023-03-23T00:05:54;13.60;91.50
1700;DHT22;847;48.058;7.810;2023-03-23T00:08:25;13.70;91.90
1700;DHT22;847;48.058;7.810;2023-03-23T00:10:52;13.80;92.90
1700;DHT22;847;48.058;7.810;2023-03-23T00:13:22;13.70;92.90
1700;DHT22;847;48.058;7.810;2023-03-23T00:15:49;13.70;92.80
1700;DHT22;847;48.058;7.810;2023-03-23T00:18:17;13.70;92.60
1700;DHT22;847;48.058;7.810;2023-03-23T00:20:50;13.70;93.00
1700;DHT22;847;48.058;7.810;2023-03-23T00:23:18;13.70;93.50
1700;DHT22;847;48.058;7.810;2023-03-23T00:25:46;13.80;92.50
1700;DHT22;847;48.058;7.810;2023-03-23T00:28:14;13.90;93.20
1700;DHT22;847;48.058;7.810;2023-03-23T00:30:41;13.80;92.80
1700;DHT22;847;48.058;7.810;2023-03-23T00:33:11;13.80;91.80
1700;DHT22;847;48.058;7.810;2023-03-23T00:35:40;13.80;92.90
1700;DHT22;847;48.058;7.810;2023-03-23T00:38:08;13.80;93.20
1700;DHT22;847;48.058;7.810;2023-03-23T00:40:35;13.60;93.60
1700;DHT22;847;48.058;7.810;2023-03-23T00:43:03;13.40;94.60
1700;DHT22;847;48.058;7.810;2023-03-23T00:45:30;13.40;95.40
1700;DHT22;847;48.058;7.810;2023-03-23T00:48:00;13.40;95.70
1700;DHT22;847;48.058;7.810;2023-03-23T00:50:27;13.50;95.90
1700;DHT22;847;48.058;7.810;2023-03-23T00:52:54;13.50;95.80
1700;DHT22;847;48.058;7.810;2023-03-23T00:55:23;13.60;94.80
1700;DHT22;847;48.058;7.810;2023-03-23T00:57:50;13.80;93.10
1700;DHT22;847;48.058;7.810;2023-03-23T01:00:18;13.90;91.50
1700;DHT22;847;48.058;7.810;2023-03-23T01:02:45;14.10;90.70
1700;DHT22;847;48.058;7.810;2023-03-23T01:05:12;14.20;89.30
1700;DHT22;847;48.058;7.810;2023-03-23T01:07:40;14.20;89.90
1700;DHT22;847;48.058;7.810;2023-03-23T01:10:08;14.20;90.40
1700;DHT22;847;48.058;7.810;2023-03-23T01:12:36;14.30;89.60
1700;DHT22;847;48.058;7.810;2023-03-23T01:15:03;14.30;89.40
1700;DHT22;847;48.058;7.810;2023-03-23T01:17:30;14.40;88.60
1700;DHT22;847;48.058;7.810;2023-03-23T01:19:59;14.40;88.10
1700;DHT22;847;48.058;7.810;2023-03-23T01:22:26;14.50;88.00
1700;DHT22;847;48.058;7.810;2023-03-23T01:24:53;14.60;87.40
1700;DHT22;847;48.058;7.810;2023-03-23T01:27:21;14.60;85.80
1700;DHT22;847;48.058;7.810;2023-03-23T01:29:49;14.70;85.50
1700;DHT22;847;48.058;7.810;2023-03-23T01:32:17;14.80;84.30
1700;DHT22;847;48.058;7.810;2023-03-23T01:34:43;14.90;83.90
1700;DHT22;847;48.058;7.810;2023-03-23T01:37:10;15.00;83.70
1700;DHT22;847;48.058;7.810;2023-03-23T01:39:37;15.00;83.40
1700;DHT22;847;48.058;7.810;2023-03-23T01:42:04;15.00;83.30
1700;DHT22;847;48.058;7.810;2023-03-23T01:47:41;15.10;83.10
1700;DHT22;847;48.058;7.810;2023-03-23T01:50:08;15.10;82.40
1700;DHT22;847;48.058;7.810;2023-03-23T01:52:35;15.20;81.30
1700;DHT22;847;48.058;7.810;2023-03-23T01:55:03;15.20;81.70
1700;DHT22;847;48.058;7.810;2023-03-23T01:57:31;15.20;81.40
1700;DHT22;847;48.058;7.810;2023-03-23T02:00:01;15.20;81.40
1700;DHT22;847;48.058;7.810;2023-03-23T02:02:34;15.20;81.20
1700;DHT22;847;48.058;7.810;2023-03-23T02:05:09;15.20;81.10
1700;DHT22;847;48.058;7.810;2023-03-23T02:07:37;15.30;80.30
1700;DHT22;847;48.058;7.810;2023-03-23T02:10:04;15.30;80.20
1700;DHT22;847;48.058;7.810;2023-03-23T02:12:32;15.30;79.90
1700;DHT22;847;48.058;7.810;2023-03-23T02:14:59;15.30;79.90
1700;DHT22;847;48.058;7.810;2023-03-23T02:17:31;15.30;79.40
1700;DHT22;847;48.058;7.810;2023-03-23T02:20:17;15.30;79.70
1700;DHT22;847;48.058;7.810;2023-03-23T02:26:00;15.30;79.90
1700;DHT22;847;48.058;7.810;2023-03-23T02:28:56;15.30;79.40
1700;DHT22;847;48.058;7.810;2023-03-23T02:31:42;15.30;79.20
1700;DHT22;847;48.058;7.810;2023-03-23T02:34:15;15.30;79.50
1700;DHT22;847;48.058;7.810;2023-03-23T02:36:46;15.30;79.30
1700;DHT22;847;48.058;7.810;2023-03-23T02:39:19;15.30;79.60
1700;DHT22;847;48.058;7.810;2023-03-23T02:41:50;15.30;79.30
1700;DHT22;847;48.058;7.810;2023-03-23T02:44:19;15.30;79.30
1700;DHT22;847;48.058;7.810;2023-03-23T02:46:46;15.30;78.90
1700;DHT22;847;48.058;7.810;2023-03-23T02:49:16;15.40;78.70
1700;DHT22;847;48.058;7.810;2023-03-23T02:51:46;15.40;78.30
1700;DHT22;847;48.058;7.810;2023-03-23T02:54:14;15.40;78.30
1700;DHT22;847;48.058;7.810;2023-03-23T02:56:41;15.40;77.80
1700;DHT22;847;48.058;7.810;2023-03-23T02:59:09;15.40;77.20
1700;DHT22;847;48.058;7.810;2023-03-23T03:01:50;15.40;77.40
1700;DHT22;847;48.058;7.810;2023-03-23T03:04:22;15.50;77.10
1700;DHT22;847;48.058;7.810;2023-03-23T03:07:06;15.50;76.90
1700;DHT22;847;48.058;7.810;2023-03-23T03:09:41;15.40;76.90
1700;DHT22;847;48.058;7.810;2023-03-23T03:12:12;15.40;76.40
1700;DHT22;847;48.058;7.810;2023-03-23T03:14:45;15.50;76.10
1700;DHT22;847;48.058;7.810;2023-03-23T03:17:19;15.50;76.00
1700;DHT22;847;48.058;7.810;2023-03-23T03:19:54;15.50;75.80
1700;DHT22;847;48.058;7.810;2023-03-23T03:22:26;15.60;75.10
1700;DHT22;847;48.058;7.810;2023-03-23T03:24:56;15.60;74.60
1700;DHT22;847;48.058;7.810;2023-03-23T03:27:25;15.60;75.30
1700;DHT22;847;48.058;7.810;2023-03-23T03:29:55;15.60;75.00
1700;DHT22;847;48.058;7.810;2023-03-23T03:32:28;15.60;75.40
1700;DHT22;847;48.058;7.810;2023-03-23T03:35:02;15.60;75.10
1700;DHT22;847;48.058;7.810;2023-03-23T03:37:34;15.50;75.00
1700;DHT22;847;48.058;7.810;2023-03-23T03:40:04;15.60;74.70
1700;DHT22;847;48.058;7.810;2023-03-23T03:42:36;15.60;74.90
1700;DHT22;847;48.058;7.810;2023-03-23T03:45:03;15.60;74.00
1700;DHT22;847;48.058;7.810;2023-03-23T03:47:31;15.70;74.20
1700;DHT22;847;48.058;7.810;2023-03-23T03:49:57;15.70;74.10
1700;DHT22;847;48.058;7.810;2023-03-23T03:52:26;15.70;73.80
1700;DHT22;847;48.058;7.810;2023-03-23T03:54:54;15.70;73.60
1700;DHT22;847;48.058;7.810;2023-03-23T03:57:21;15.70;73.90
1700;DHT22;847;48.058;7.810;2023-03-23T03:59:48;15.70;73.90
1700;DHT22;847;48.058;7.810;2023-03-23T04:02:15;15.80;73.60
1700;DHT22;847;48.058;7.810;2023-03-23T04:04:45;15.80;73.70
1700;DHT22;847;48.058;7.810;2023-03-23T04:07:13;15.80;73.40
1700;DHT22;847;48.058;7.810;2023-03-23T04:09:43;15.80;73.50
1700;DHT22;847;48.058;7.810;2023-03-23T04:12:11;15.80;73.60
1700;DHT22;847;48.058;7.810;2023-03-23T04:14:38;15.90;73.10
1700;DHT22;847;48.058;7.810;2023-03-23T04:17:05;15.90;72.90
1700;DHT22;847;48.058;7.810;2023-03-23T04:19:34;15.90;72.80
1700;DHT22;847;48.058;7.810;2023-03-23T04:22:02;15.90;73.00
1700;DHT22;847;48.058;7.810;2023-03-23T04:24:29;15.90;73.00
1700;DHT22;847;48.058;7.810;2023-03-23T04:27:00;15.90;73.30
1700;DHT22;847;48.058;7.810;2023-03-23T04:29:28;15.90;73.50
1700;DHT22;847;48.058;7.810;2023-03-23T04:31:55;15.90;73.50
1700;DHT22;847;48.058;7.810;2023-03-23T04:34:23;15.90;73.60
1700;DHT22;847;48.058;7.810;2023-03-23T04:36:49;15.90;73.40
1700;DHT22;847;48.058;7.810;2023-03-23T04:39:17;15.90;73.20
1700;DHT22;847;48.058;7.810;2023-03-23T04:41:44;15.90;73.60
1700;DHT22;847;48.058;7.810;2023-03-23T04:44:13;15.90;73.70
1700;DHT22;847;48.058;7.810;2023-03-23T04:46:43;15.90;73.50
1700;DHT22;847;48.058;7.810;2023-03-23T04:49:15;15.90;73.20
1700;DHT22;847;48.058;7.810;2023-03-23T04:51:47;15.90;73.40
1700;DHT22;847;48.058;7.810;2023-03-23T04:54:16;15.90;73.40
1700;DHT22;847;48.058;7.810;2023-03-23T04:56:43;15.90;73.50
1700;DHT22;847;48.058;7.810;2023-03-23T04:59:09;15.90;73.70
1700;DHT22;847;48.058;7.810;2023-03-23T05:01:40;15.90;73.90
1700;DHT22;847;48.058;7.810;2023-03-23T05:04:11;15.90;73.80
1700;DHT22;847;48.058;7.810;2023-03-23T05:06:38;15.90;73.90
1700;DHT22;847;48.058;7.810;2023-03-23T05:09:06;15.90;73.80
1700;DHT22;847;48.058;7.810;2023-03-23T05:11:33;15.90;74.00
1700;DHT22;847;48.058;7.810;2023-03-23T05:14:00;15.90;73.90
1700;DHT22;847;48.058;7.810;2023-03-23T05:16:27;15.90;74.40
1700;DHT22;847;48.058;7.810;2023-03-23T05:18:55;15.90;74.20
1700;DHT22;847;48.058;7.810;2023-03-23T05:21:23;15.90;74.20
1700;DHT22;847;48.058;7.810;2023-03-23T05:23:51;15.90;74.50
1700;DHT22;847;48.058;7.810;2023-03-23T05:26:20;15.80;74.70
1700;DHT22;847;48.058;7.810;2023-03-23T05:28:47;15.90;74.60
1700;DHT22;847;48.058;7.810;2023-03-23T05:31:17;15.80;74.90
1700;DHT22;847;48.058;7.810;2023-03-23T05:33:44;15.90;75.00
1700;DHT22;847;48.058;7.810;2023-03-23T05:36:13;15.90;75.00
1700;DHT22;847;48.058;7.810;2023-03-23T05:38:40;15.80;75.00
1700;DHT22;847;48.058;7.810;2023-03-23T05:41:10;15.80;75.30
1700;DHT22;847;48.058;7.810;2023-03-23T05:43:37;15.80;75.20
1700;DHT22;847;48.058;7.810;2023-03-23T05:46:06;15.80;75.40
1700;DHT22;847;48.058;7.810;2023-03-23T05:48:33;15.80;75.40
1700;DHT22;847;48.058;7.810;2023-03-23T05:51:01;15.80;75.50
1700;DHT22;847;48.058;7.810;2023-03-23T05:53:29;15.80;75.30
1700;DHT22;847;48.058;7.810;2023-03-23T05:55:58;15.80;75.60
1700;DHT22;847;48.058;7.810;2023-03-23T05:58:26;15.80;76.00
1700;DHT22;847;48.058;7.810;2023-03-23T06:00:52;15.80;76.10
1700;DHT22;847;48.058;7.810;2023-03-23T06:03:20;15.70;76.20
1700;DHT22;847;48.058;7.810;2023-03-23T06:05:48;15.70;76.20
1700;DHT22;847;48.058;7.810;2023-03-23T06:08:15;15.70;76.30
1700;DHT22;847;48.058;7.810;2023-03-23T06:10:43;15.70;76.60
1700;DHT22;847;48.058;7.810;2023-03-23T06:13:10;15.70;77.20
1700;DHT22;847;48.058;7.810;2023-03-23T06:15:39;15.60;77.60
1700;DHT22;847;48.058;7.810;2023-03-23T06:18:07;15.60;77.60
1700;DHT22;847;48.058;7.810;2023-03-23T06:20:34;15.70;77.30
1700;DHT22;847;48.058;7.810;2023-03-23T06:23:01;15.70;77.90
1700;DHT22;847;48.058;7.810;2023-03-23T06:25:29;15.60;78.10
1700;DHT22;847;48.058;7.810;2023-03-23T06:27:57;15.60;78.00
1700;DHT22;847;48.058;7.810;2023-03-23T06:30:25;15.60;77.90
1700;DHT22;847;48.058;7.810;2023-03-23T06:32:55;15.60;77.60
1700;DHT22;847;48.058;7.810;2023-03-23T06:35:22;15.60;78.10
1700;DHT22;847;48.058;7.810;2023-03-23T06:37:49;15.60;78.20
1700;DHT22;847;48.058;7.810;2023-03-23T06:40:17;15.60;78.10
1700;DHT22;847;48.058;7.810;2023-03-23T06:42:45;15.50;78.00
1700;DHT22;847;48.058;7.810;2023-03-23T06:45:13;15.50;78.20
1700;DHT22;847;48.058;7.810;2023-03-23T06:47:40;15.50;78.70
1700;DHT22;847;48.058;7.810;2023-03-23T06:50:07;15.50;78.80
1700;DHT22;847;48.058;7.810;2023-03-23T06:52:34;15.50;79.00
1700;DHT22;847;48.058;7.810;2023-03-23T06:55:01;15.50;79.40
1700;DHT22;847;48.058;7.810;2023-03-23T06:57:28;15.50;79.30
1700;DHT22;847;48.058;7.810;2023-03-23T06:59:54;15.40;79.40
1700;DHT22;847;48.058;7.810;2023-03-23T07:02:23;15.40;79.30
1700;DHT22;847;48.058;7.810;2023-03-23T07:04:51;15.40;79.40
1700;DHT22;847;48.058;7.810;2023-03-23T07:07:19;15.40;79.30
1700;DHT22;847;48.058;7.810;2023-03-23T07:09:46;15.40;79.20
1700;DHT22;847;48.058;7.810;2023-03-23T07:12:13;15.40;79.10
1700;DHT22;847;48.058;7.810;2023-03-23T07:14:41;15.40;79.40
1700;DHT22;847;48.058;7.810;2023-03-23T07:17:07;15.40;79.20
1700;DHT22;847;48.058;7.810;2023-03-23T07:19:36;15.40;79.10
1700;DHT22;847;48.058;7.810;2023-03-23T07:22:04;15.40;79.10
1700;DHT22;847;48.058;7.810;2023-03-23T07:24:31;15.40;79.70
1700;DHT22;847;48.058;7.810;2023-03-23T07:26:58;15.40;80.50
1700;DHT22;847;48.058;7.810;2023-03-23T07:29:24;15.40;81.10
1700;DHT22;847;48.058;7.810;2023-03-23T07:31:52;15.30;81.70
1700;DHT22;847;48.058;7.810;2023-03-23T07:34:19;15.30;82.20
1700;DHT22;847;48.058;7.810;2023-03-23T07:36:47;15.30;82.80
1700;DHT22;847;48.058;7.810;2023-03-23T07:39:14;15.30;82.90
1700;DHT22;847;48.058;7.810;2023-03-23T07:41:41;15.30;83.20
1700;DHT22;847;48.058;7.810;2023-03-23T07:44:07;15.20;83.40
1700;DHT22;847;48.058;7.810;2023-03-23T07:46:34;15.20;83.50
1700;DHT22;847;48.058;7.810;2023-03-23T07:49:01;15.20;84.00
1700;DHT22;847;48.058;7.810;2023-03-23T07:51:31;15.20;83.60
1700;DHT22;847;48.058;7.810;2023-03-23T07:53:59;15.20;83.80
1700;DHT22;847;48.058;7.810;2023-03-23T07:56:28;15.20;84.30
1700;DHT22;847;48.058;7.810;2023-03-23T07:58:55;15.20;84.70
1700;DHT22;847;48.058;7.810;2023-03-23T08:01:21;15.10;85.00
1700;DHT22;847;48.058;7.810;2023-03-23T08:03:49;15.10;85.30
1700;DHT22;847;48.058;7.810;2023-03-23T08:06:16;15.10;85.60
1700;DHT22;847;48.058;7.810;2023-03-23T08:08:43;15.00;85.90
1700;DHT22;847;48.058;7.810;2023-03-23T08:11:12;15.00;86.20
1700;DHT22;847;48.058;7.810;2023-03-23T08:13:40;15.00;86.20
1700;DHT22;847;48.058;7.810;2023-03-23T08:16:07;15.00;86.70
1700;DHT22;847;48.058;7.810;2023-03-23T08:18:35;15.00;86.60
1700;DHT22;847;48.058;7.810;2023-03-23T08:21:03;15.00;86.80
1700;DHT22;847;48.058;7.810;2023-03-23T08:23:30;15.00;86.80
1700;DHT22;847;48.058;7.810;2023-03-23T08:25:58;15.00;87.30
1700;DHT22;847;48.058;7.810;2023-03-23T08:28:26;15.00;87.00
1700;DHT22;847;48.058;7.810;2023-03-23T08:30:53;15.00;87.60
1700;DHT22;847;48.058;7.810;2023-03-23T08:33:20;14.90;88.10
1700;DHT22;847;48.058;7.810;2023-03-23T08:35:54;14.90;88.00
1700;DHT22;847;48.058;7.810;2023-03-23T08:38:22;14.90;87.90
1700;DHT22;847;48.058;7.810;2023-03-23T08:40:49;14.90;88.70
1700;DHT22;847;48.058;7.810;2023-03-23T08:43:16;14.90;89.10
1700;DHT22;847;48.058;7.810;2023-03-23T08:45:44;14.80;89.00
1700;DHT22;847;48.058;7.810;2023-03-23T08:48:11;14.80;89.20
1700;DHT22;847;48.058;7.810;2023-03-23T08:50:38;14.90;89.10
1700;DHT22;847;48.058;7.810;2023-03-23T08:53:06;14.90;89.20
1700;DHT22;847;48.058;7.810;2023-03-23T08:55:33;14.90;89.40
1700;DHT22;847;48.058;7.810;2023-03-23T08:57:59;14.80;90.60
1700;DHT22;847;48.058;7.810;2023-03-23T09:00:27;14.80;90.70
1700;DHT22;847;48.058;7.810;2023-03-23T09:02:55;14.80;90.50
1700;DHT22;847;48.058;7.810;2023-03-23T09:05:27;14.80;91.10
1700;DHT22;847;48.058;7.810;2023-03-23T09:07:55;14.90;90.40
1700;DHT22;847;48.058;7.810;2023-03-23T09:10:27;14.90;90.60
1700;DHT22;847;48.058;7.810;2023-03-23T09:12:55;14.90;90.10
1700;DHT22;847;48.058;7.810;2023-03-23T09:15:23;14.90;90.60
1700;DHT22;847;48.058;7.810;2023-03-23T09:17:51;14.90;90.70
1700;DHT22;847;48.058;7.810;2023-03-23T09:20:22;14.90;89.90
1700;DHT22;847;48.058;7.810;2023-03-23T09:22:51;14.90;91.10
1700;DHT22;847;48.058;7.810;2023-03-23T09:25:22;14.90;90.50
1700;DHT22;847;48.058;7.810;2023-03-23T09:27:52;14.90;90.10
1700;DHT22;847;48.058;7.810;2023-03-23T09:30:22;15.00;90.60
1700;DHT22;847;48.058;7.810;2023-03-23T09:32:49;15.00;91.20
1700;DHT22;847;48.058;7.810;2023-03-23T09:35:16;15.00;91.30
1700;DHT22;847;48.058;7.810;2023-03-23T09:37:45;14.90;91.40
1700;DHT22;847;48.058;7.810;2023-03-23T09:40:14;14.90;91.50
1700;DHT22;847;48.058;7.810;2023-03-23T09:42:56;15.00;91.50
1700;DHT22;847;48.058;7.810;2023-03-23T09:45:26;15.00;90.50
1700;DHT22;847;48.058;7.810;2023-03-23T09:48:19;15.10;90.10
1700;DHT22;847;48.058;7.810;2023-03-23T09:50:54;15.10;89.10
1700;DHT22;847;48.058;7.810;2023-03-23T09:53:29;15.20;88.40
1700;DHT22;847;48.058;7.810;2023-03-23T09:56:00;15.20;87.50
1700;DHT22;847;48.058;7.810;2023-03-23T09:58:33;15.20;86.60
1700;DHT22;847;48.058;7.810;2023-03-23T10:01:08;15.20;86.50
1700;DHT22;847;48.058;7.810;2023-03-23T10:03:39;15.30;86.40
1700;DHT22;847;48.058;7.810;2023-03-23T10:06:08;15.30;86.50
1700;DHT22;847;48.058;7.810;2023-03-23T10:08:39;15.30;86.10
1700;DHT22;847;48.058;7.810;2023-03-23T10:11:16;15.30;86.10
1700;DHT22;847;48.058;7.810;2023-03-23T10:13:55;15.30;85.90
1700;DHT22;847;48.058;7.810;2023-03-23T10:16:29;15.30;84.90
1700;DHT22;847;48.058;7.810;2023-03-23T10:18:59;15.30;85.20
1700;DHT22;847;48.058;7.810;2023-03-23T10:21:28;15.40;85.10
1700;DHT22;847;48.058;7.810;2023-03-23T10:23:59;15.40;84.60
1700;DHT22;847;48.058;7.810;2023-03-23T10:26:37;15.50;84.30
1700;DHT22;847;48.058;7.810;2023-03-23T10:29:15;15.50;84.20
1700;DHT22;847;48.058;7.810;2023-03-23T10:31:47;15.50;84.00
1700;DHT22;847;48.058;7.810;2023-03-23T10:34:31;15.60;83.80
1700;DHT22;847;48.058;7.810;2023-03-23T10:37:04;15.60;83.60
1700;DHT22;847;48.058;7.810;2023-03-23T10:39:41;15.70;82.60
1700;DHT22;847;48.058;7.810;2023-03-23T10:42:11;15.70;83.30
1700;DHT22;847;48.058;7.810;2023-03-23T10:44:38;15.80;81.90
1700;DHT22;847;48.058;7.810;2023-03-23T10:47:06;15.90;81.40
1700;DHT22;847;48.058;7.810;2023-03-23T10:49:37;15.90;81.70
1700;DHT22;847;48.058;7.810;2023-03-23T10:52:12;15.90;81.60
1700;DHT22;847;48.058;7.810;2023-03-23T10:54:49;16.00;81.50
1700;DHT22;847;48.058;7.810;2023-03-23T10:57:22;16.00;81.00
1700;DHT22;847;48.058;7.810;2023-03-23T10:59:50;16.10;80.60
1700;DHT22;847;48.058;7.810;2023-03-23T11:02:18;16.10;80.10
1700;DHT22;847;48.058;7.810;2023-03-23T11:04:55;16.20;80.20
1700;DHT22;847;48.058;7.810;2023-03-23T11:07:28;16.20;80.80
1700;DHT22;847;48.058;7.810;2023-03-23T11:10:05;16.20;79.10
1700;DHT22;847;48.058;7.810;2023-03-23T11:12:34;16.20;80.00
1700;DHT22;847;48.058;7.810;2023-03-23T11:15:28;16.20;81.20
1700;DHT22;847;48.058;7.810;2023-03-23T11:17:57;16.20;80.90
1700;DHT22;847;48.058;7.810;2023-03-23T11:20:25;16.30;79.90
1700;DHT22;847;48.058;7.810;2023-03-23T11:22:54;16.30;80.60
1700;DHT22;847;48.058;7.810;2023-03-23T11:25:23;16.30;81.40
1700;DHT22;847;48.058;7.810;2023-03-23T11:27:51;16.30;80.30
1700;DHT22;847;48.058;7.810;2023-03-23T11:30:23;16.30;80.70
1700;DHT22;847;48.058;7.810;2023-03-23T11:32:51;16.40;80.70
1700;DHT22;847;48.058;7.810;2023-03-23T11:35:21;16.50;80.60
1700;DHT22;847;48.058;7.810;2023-03-23T11:37:51;16.50;80.30
1700;DHT22;847;48.058;7.810;2023-03-23T11:40:21;16.60;80.30
1700;DHT22;847;48.058;7.810;2023-03-23T11:42:57;16.60;79.90
1700;DHT22;847;48.058;7.810;2023-03-23T11:45:30;16.70;80.00
1700;DHT22;847;48.058;7.810;2023-03-23T11:48:03;16.70;79.50
1700;DHT22;847;48.058;7.810;2023-03-23T11:50:36;16.80;80.00
1700;DHT22;847;48.058;7.810;2023-03-23T11:53:17;16.80;80.60
1700;DHT22;847;48.058;7.810;2023-03-23T11:55:57;16.80;80.20
1700;DHT22;847;48.058;7.810;2023-03-23T11:58:27;16.90;79.10
1700;DHT22;847;48.058;7.810;2023-03-23T12:01:00;16.90;79.30
1700;DHT22;847;48.058;7.810;2023-03-23T12:03:47;17.00;78.50
1700;DHT22;847;48.058;7.810;2023-03-23T12:06:26;16.90;78.20
1700;DHT22;847;48.058;7.810;2023-03-23T12:09:02;16.90;78.10
1700;DHT22;847;48.058;7.810;2023-03-23T12:11:37;17.00;77.70
1700;DHT22;847;48.058;7.810;2023-03-23T12:14:16;17.00;77.50
1700;DHT22;847;48.058;7.810;2023-03-23T12:16:59;17.10;77.00
1700;DHT22;847;48.058;7.810;2023-03-23T12:19:37;17.00;76.20
1700;DHT22;847;48.058;7.810;2023-03-23T12:22:13;17.00;77.30
1700;DHT22;847;48.058;7.810;2023-03-23T12:24:53;17.00;77.20
1700;DHT22;847;48.058;7.810;2023-03-23T12:27:29;17.00;77.20
1700;DHT22;847;48.058;7.810;2023-03-23T12:30:23;17.00;77.10
1700;DHT22;847;48.058;7.810;2023-03-23T12:33:13;17.00;77.20
1700;DHT22;847;48.058;7.810;2023-03-23T12:35:56;17.00;77.60
1700;DHT22;847;48.058;7.810;2023-03-23T12:38:36;17.00;76.80
1700;DHT22;847;48.058;7.810;2023-03-23T12:41:12;17.10;75.90
1700;DHT22;847;48.058;7.810;2023-03-23T12:43:49;17.10;76.80
1700;DHT22;847;48.058;7.810;2023-03-23T12:46:34;17.10;77.10
1700;DHT22;847;48.058;7.810;2023-03-23T12:49:07;17.10;77.20
1700;DHT22;847;48.058;7.810;2023-03-23T12:51:40;17.10;77.50
1700;DHT22;847;48.058;7.810;2023-03-23T12:54:13;17.10;77.00
1700;DHT22;847;48.058;7.810;2023-03-23T12:56:48;17.10;77.00
1700;DHT22;847;48.058;7.810;2023-03-23T12:59:21;17.10;76.50
1700;DHT22;847;48.058;7.810;2023-03-23T13:01:54;17.10;76.90
1700;DHT22;847;48.058;7.810;2023-03-23T13:04:27;17.10;76.80
1700;DHT22;847;48.058;7.810;2023-03-23T13:06:54;17.10;76.40
1700;DHT22;847;48.058;7.810;2023-03-23T13:09:26;17.10;76.50
1700;DHT22;847;48.058;7.810;2023-03-23T13:11:56;17.10;77.00
1700;DHT22;847;48.058;7.810;2023-03-23T13:14:31;17.10;75.70
1700;DHT22;847;48.058;7.810;2023-03-23T13:17:06;17.10;76.50
1700;DHT22;847;48.058;7.810;2023-03-23T13:19:44;17.10;76.40
1700;DHT22;847;48.058;7.810;2023-03-23T13:22:18;17.00;76.10
1700;DHT22;847;48.058;7.810;2023-03-23T13:24:51;17.00;76.30
1700;DHT22;847;48.058;7.810;2023-03-23T13:27:23;17.00;75.70
1700;DHT22;847;48.058;7.810;2023-03-23T13:29:51;17.00;76.00
1700;DHT22;847;48.058;7.810;2023-03-23T13:32:19;17.00;76.70
1700;DHT22;847;48.058;7.810;2023-03-23T13:34:47;16.90;77.10
1700;DHT22;847;48.058;7.810;2023-03-23T13:37:21;16.90;76.90
1700;DHT22;847;48.058;7.810;2023-03-23T13:39:50;16.90;76.70
1700;DHT22;847;48.058;7.810;2023-03-23T13:42:21;16.90;76.40
1700;DHT22;847;48.058;7.810;2023-03-23T13:45:08;17.00;76.60
1700;DHT22;847;48.058;7.810;2023-03-23T13:47:45;17.00;76.50
1700;DHT22;847;48.058;7.810;2023-03-23T13:50:25;17.00;75.10
1700;DHT22;847;48.058;7.810;2023-03-23T13:52:56;16.90;76.50
1700;DHT22;847;48.058;7.810;2023-03-23T13:55:47;17.00;75.80
1700;DHT22;847;48.058;7.810;2023-03-23T13:58:23;16.90;75.60
1700;DHT22;847;48.058;7.810;2023-03-23T14:01:03;16.90;75.40
1700;DHT22;847;48.058;7.810;2023-03-23T14:03:40;16.90;75.90
1700;DHT22;847;48.058;7.810;2023-03-23T14:06:13;16.90;75.50
1700;DHT22;847;48.058;7.810;2023-03-23T14:08:43;16.90;75.40
1700;DHT22;847;48.058;7.810;2023-03-23T14:11:13;16.90;75.80
1700;DHT22;847;48.058;7.810;2023-03-23T14:13:45;16.90;75.80
1700;DHT22;847;48.058;7.810;2023-03-23T14:16:16;16.90;76.10
1700;DHT22;847;48.058;7.810;2023-03-23T14:18:54;16.90;75.80
1700;DHT22;847;48.058;7.810;2023-03-23T14:21:26;16.90;75.10
1700;DHT22;847;48.058;7.810;2023-03-23T14:24:00;16.80;75.00
1700;DHT22;847;48.058;7.810;2023-03-23T14:26:28;16.80;75.10
1700;DHT22;847;48.058;7.810;2023-03-23T14:28:55;16.80;75.10
1700;DHT22;847;48.058;7.810;2023-03-23T14:31:23;16.80;75.10
1700;DHT22;847;48.058;7.810;2023-03-23T14:33:54;16.80;75.30
1700;DHT22;847;48.058;7.810;2023-03-23T14:36:22;16.70;75.70
1700;DHT22;847;48.058;7.810;2023-03-23T14:39:00;16.80;75.40
1700;DHT22;847;48.058;7.810;2023-03-23T14:41:29;16.80;75.80
1700;DHT22;847;48.058;7.810;2023-03-23T14:43:59;16.70;76.00
1700;DHT22;847;48.058;7.810;2023-03-23T14:46:26;16.70;76.20
1700;DHT22;847;48.058;7.810;2023-03-23T14:48:55;16.70;75.90
1700;DHT22;847;48.058;7.810;2023-03-23T14:51:23;16.70;75.80
1700;DHT22;847;48.058;7.810;2023-03-23T14:53:54;16.70;76.20
1700;DHT22;847;48.058;7.810;2023-03-23T14:56:23;16.70;76.40
1700;DHT22;847;48.058;7.810;2023-03-23T14:58:53;16.70;76.10
1700;DHT22;847;48.058;7.810;2023-03-23T15:01:24;16.70;76.10
1700;DHT22;847;48.058;7.810;2023-03-23T15:03:57;16.70;76.20
1700;DHT22;847;48.058;7.810;2023-03-23T15:06:29;16.70;76.30
1700;DHT22;847;48.058;7.810;2023-03-23T15:09:00;16.70;76.30
1700;DHT22;847;48.058;7.810;2023-03-23T15:11:30;16.70;76.70
1700;DHT22;847;48.058;7.810;2023-03-23T15:13:59;16.70;76.50
1700;DHT22;847;48.058;7.810;2023-03-23T15:16:30;16.70;75.90
1700;DHT22;847;48.058;7.810;2023-03-23T15:19:01;16.70;76.30
1700;DHT22;847;48.058;7.810;2023-03-23T15:21:30;16.70;75.90
1700;DHT22;847;48.058;7.810;2023-03-23T15:23:58;16.70;75.90
1700;DHT22;847;48.058;7.810;2023-03-23T15:26:28;16.70;75.80
1700;DHT22;847;48.058;7.810;2023-03-23T15:29:15;16.70;76.20
1700;DHT22;847;48.058;7.810;2023-03-23T15:31:45;16.70;76.50
1700;DHT22;847;48.058;7.810;2023-03-23T15:34:24;16.70;76.70
1700;DHT22;847;48.058;7.810;2023-03-23T15:36:57;16.70;76.40
1700;DHT22;847;48.058;7.810;2023-03-23T15:39:25;16.70;76.50
1700;DHT22;847;48.058;7.810;2023-03-23T15:41:53;16.70;76.50
1700;DHT22;847;48.058;7.810;2023-03-23T15:44:27;16.70;76.70
1700;DHT22;847;48.058;7.810;2023-03-23T15:47:12;16.70;76.70
1700;DHT22;847;48.058;7.810;2023-03-23T15:49:41;16.60;77.10
1700;DHT22;847;48.058;7.810;2023-03-23T15:52:09;16.60;76.90
1700;DHT22;847;48.058;7.810;2023-03-23T15:54:37;16.60;77.10
1700;DHT22;847;48.058;7.810;2023-03-23T15:57:04;16.70;76.90
1700;DHT22;847;48.058;7.810;2023-03-23T15:59:31;16.60;77.20
1700;DHT22;847;48.058;7.810;2023-03-23T16:01:58;16.60;77.60
1700;DHT22;847;48.058;7.810;2023-03-23T16:04:25;16.60;78.10
1700;DHT22;847;48.058;7.810;2023-03-23T16:06:55;16.50;77.90
1700;DHT22;847;48.058;7.810;2023-03-23T16:09:23;16.50;77.70
1700;DHT22;847;48.058;7.810;2023-03-23T16:11:50;16.50;77.20
1700;DHT22;847;48.058;7.810;2023-03-23T16:14:17;16.50;77.50
1700;DHT22;847;48.058;7.810;2023-03-23T16:16:45;16.50;78.00
1700;DHT22;847;48.058;7.810;2023-03-23T16:19:14;16.50;78.00
1700;DHT22;847;48.058;7.810;2023-03-23T16:21:41;16.50;78.00
1700;DHT22;847;48.058;7.810;2023-03-23T16:24:10;16.50;77.80
1700;DHT22;847;48.058;7.810;2023-03-23T16:26:37;16.50;77.70
1700;DHT22;847;48.058;7.810;2023-03-23T16:29:10;16.50;77.80
1700;DHT22;847;48.058;7.810;2023-03-23T16:31:37;16.50;77.80
1700;DHT22;847;48.058;7.810;2023-03-23T16:34:04;16.50;78.20
1700;DHT22;847;48.058;7.810;2023-03-23T16:36:31;16.50;78.20
1700;DHT22;847;48.058;7.810;2023-03-23T16:38:58;16.50;78.30
1700;DHT22;847;48.058;7.810;2023-03-23T16:41:27;16.50;78.20
1700;DHT22;847;48.058;7.810;2023-03-23T16:43:53;16.40;78.30